Nearby Idaho METAR Reports

Sorted by Distance from Emmett Weather Station - Emmett, Idaho

 

KEUL - Caldwell, Idaho, USA
Distance from station: SSW 19mi, 30km
Updated: Tue, 06-Dec-2022 3:56pm MST
Overcast
Overcast
 Wind from W
Wind: W 5 mph , 7 km/h
Temperature: 34°F , 1°C
Wind Chill: 29°F , -2°C
Dew Point: 30°F , -1°C
Humidity: 87%
Barometer: 30.14 inHg , 1020.7 hPa
Clouds: Overcast
Visibility: 8 miles , 13 km
Cloud details: Overcast 6000 ft
2022/12/06 22:56 KEUL 062256Z AUTO 28004KT 8SM OVC060 01/M01 A3014 RMK AO2 SLP227 T00111011 FZRANO
KMAN - Nampa, Idaho, USA
Distance from station: S 19mi, 31km
Updated: Tue, 06-Dec-2022 3:55pm MST
Mist
Mist
 Wind from calm
Wind: Calm
Temperature: 36°F , 2°C
Dew Point: 32°F , 0°C
Humidity: 87%
Barometer: 30.13 inHg , 1020.3 hPa
Summary: Mist
Visibility: 6 miles , 10 km
2022/12/06 22:55 KMAN 062255Z AUTO 00000KT 6SM BR 02/M00 A3013 RMK A01
 
KBOI - Boise, Idaho, USA
Distance from station: SSE 23mi, 38km
Updated: Tue, 06-Dec-2022 3:53pm MST
Haze, Overcast
Haze, Overcast
 Wind from calm
Wind: Calm
Temperature: 36°F , 2°C
Dew Point: 30°F , -1°C
Humidity: 81%
Barometer: 30.11 inHg , 1019.6 hPa
Summary: Haze
Clouds: Overcast
Visibility: 6 miles , 10 km
Cloud details: Overcast 6000 ft
2022/12/06 22:53 KBOI 062253Z 00000KT 6SM HZ OVC060 02/M01 A3011 RMK AO2 SLP215 T00171011
KONO - Ontario, Oregon, USA
Distance from station: WNW 30mi, 48km
Updated: Wed, 30-Nov-2022 8:53pm MST
NOT Current
Overcast
Overcast
 Wind from S
Wind: S 14 mph , 22 km/h
Temperature: 39°F , 4°C
Wind Chill: 31°F , -1°C
Dew Point: 28°F , -2°C
Humidity: 65%
Barometer: 29.66 inHg , 1004.4 hPa
Clouds: Overcast
Visibility: 10 miles , 16 km
Cloud details: Overcast 7000 ft
2022/12/01 03:53 KONO 010353Z AUTO 17012KT 10SM OVC070 04/M02 A2966 RMK AO2 SLP059 T00441022
 
KMUO - Mountain Home, Idaho, USA
Distance from station: SSE 65mi, 104km
Updated: Tue, 06-Dec-2022 3:55pm MST
Mist, Overcast
Mist, Overcast
 Wind from varies
Wind: varies 3 mph , 6 km/h
Temperature: 32°F , 0°C
Dew Point: 32°F , 0°C
Humidity: 100%
Barometer: 30.09 inHg , 1019 hPa
Summary: Mist
Clouds: Overcast
Visibility: 5 miles , 8 km
Cloud details: Mostly cloudy 700 ft
Overcast 2000 ft
2022/12/06 22:55 KMUO 062255Z VRB03KT 5SM BR BKN007 OVC020 M00/M00 A3009 RMK AO2A SLP210 T10021005 $
KMYL - Mccall, Idaho, USA
Distance from station: NNE 74mi, 119km
Updated: Wed, 30-Nov-2022 9:23pm MST
NOT Current
Light snow, Overcast
Light snow, Overcast
 Wind from SSE
Wind: SSE 12 mph , 19 km/h, Gust: 20 mph , 31 km/h
Temperature: 30°F , -1°C
Wind Chill: 20°F , -7°C
Dew Point: 25°F , -4°C
Humidity: 80%
Barometer: 29.59 inHg , 1002 hPa
Summary: Light Snow
Clouds: Overcast
Visibility: 1 mile , 2 km
Cloud details: Mostly cloudy 1100 ft
Overcast 1700 ft
2022/12/01 04:23 KMYL 010423Z AUTO 15010G17KT 1SM -SN BKN011 OVC017 M01/M04 A2959 RMK AO2 P0001 T10061044 $
 
KSNT - Stanley, Idaho, USA
Distance from station: ENE 79mi, 127km
Updated: Tue, 06-Dec-2022 3:51pm MST

 Wind from calm
Wind: Calm
Temperature: 25°F , -4°C
Dew Point: 18°F , -8°C
Humidity: 74%
Barometer: 29.99 inHg , 1015.6 hPa
2022/12/06 22:51 KSNT 062251Z AUTO 00000KT M04/M08 A2999 RMK AO1 SLP163 T10441083
KBKE - Baker, Oregon, USA
Distance from station: NW 96mi, 154km
Updated: Tue, 06-Dec-2022 3:53pm MST
Overcast
Overcast
 Wind from WSW
Wind: WSW 5 mph , 7 km/h
Temperature: 25°F , -4°C
Wind Chill: 19°F , -7°C
Dew Point: 19°F , -7°C
Humidity: 80%
Barometer: 30.07 inHg , 1018.3 hPa
Clouds: Overcast
Visibility: 7 miles , 11 km
Cloud details: Overcast 300 ft
2022/12/06 22:53 KBKE 062253Z AUTO 25004KT 7SM OVC003 M04/M07 A3007 RMK AO2 SLP219 T10441067
 
KJSY - Joseph, Oregon, USA
Distance from station: NNW 111mi, 179km
Updated: Tue, 06-Dec-2022 3:55pm MST
Clear
Clear
 
Temperature: 27°F , -3°C
Dew Point: 19°F , -7°C
Humidity: 74%
Barometer: 29.98 inHg , 1015.2 hPa
Clouds: Clear
Visibility: 10 miles , 16 km
2022/12/06 22:55 KJSY 062255Z AUTO 10SM CLR M03/M07 A2998 RMK AO2 T10291068 TSNO
KSUN - Hailey/Friedman, Idaho, USA
Distance from station: ESE 112mi, 180km
Updated: Tue, 06-Dec-2022 3:54pm MST
Partly cloudy
Partly cloudy
 Wind from calm
Wind: Calm
Temperature: 27°F , -3°C
Dew Point: 19°F , -7°C
Humidity: 74%
Barometer: 30.03 inHg , 1016.9 hPa
Clouds: Partly cloudy
Visibility: 10 miles , 16 km
Cloud details: Partly cloudy 8000 ft
2022/12/06 22:54 KSUN 062254Z 00000KT 10SM SCT080 M03/M07 A3003
 
KREO - Rome, Oregon, USA
Distance from station: SW 113mi, 182km
Updated: Tue, 06-Dec-2022 3:52pm MST

 Wind from W
Wind: W 3 mph , 6 km/h
Temperature: 39°F , 4°C
Dew Point: 23°F , -5°C
Humidity: 52%
Barometer: 30.05 inHg , 1017.6 hPa
2022/12/06 22:52 KREO 062252Z AUTO 27003KT 04/M05 A3005 RMK AO1 SLP198 T00391050
KLLJ - Challis, Idaho, USA
Distance from station: ENE 120mi, 193km
Updated: Tue, 06-Dec-2022 3:55pm MST
Partly cloudy
Partly cloudy
 Wind from SSW
Wind: SSW 6 mph , 9 km/h
Temperature: 34°F , 1°C
Wind Chill: 29°F , -2°C
Dew Point: 16°F , -9°C
Humidity: 48%
Barometer: 29.95 inHg , 1014.2 hPa
Clouds: Partly cloudy
Visibility: 10 miles , 16 km
Cloud details: Partly cloudy 5500 ft
2022/12/06 22:55 KLLJ 062255Z AUTO 20005KT 10SM SCT055 01/M09 A2995 RMK AO2 SLP173 T00061089
 
KLGD - La Grande, Oregon, USA
Distance from station: NW 123mi, 198km
Updated: Tue, 06-Dec-2022 3:56pm MST
Clear
Clear
 Wind from S
Wind: S 24 mph , 39 km/h
Temperature: 28°F , -2°C
Wind Chill: 14°F , -10°C
Dew Point: 25°F , -4°C
Humidity: 86%
Barometer: 30.04 inHg , 1017.3 hPa
Clouds: Clear
Visibility: 10 miles , 16 km
2022/12/06 22:56 KLGD 062256Z AUTO 19021KT 10SM CLR M02/M04 A3004 RMK AO2 PK WND 19028/2221 SLP200 T10171044 FZRANO
KBNO - Burns, Oregon, USA
Distance from station: W 126mi, 202km
Updated: Tue, 06-Dec-2022 3:53pm MST
Clear
Clear
 Wind from calm
Wind: Calm
Temperature: 30°F , -1°C
Dew Point: 25°F , -4°C
Humidity: 80%
Barometer: 30.07 inHg , 1018.3 hPa
Clouds: Clear
Visibility: 10 miles , 16 km
2022/12/06 22:53 KBNO 062253Z AUTO 00000KT 10SM CLR M01/M04 A3007 RMK AO2 SLP207 T10061039
 
KJER - Jerome County, Idaho, USA
Distance from station: SE 128mi, 207km
Updated: Tue, 06-Dec-2022 3:53pm MST
Overcast
Overcast
 Wind from WNW
Wind: WNW 5 mph , 7 km/h
Temperature: 34°F , 1°C
Wind Chill: 29°F , -2°C
Dew Point: 28°F , -2°C
Humidity: 81%
Barometer: 30.07 inHg , 1018.3 hPa
Clouds: Overcast
Visibility: 10 miles , 16 km
Cloud details: Overcast 6000 ft
2022/12/06 22:53 KJER 062253Z AUTO 30004KT 10SM OVC060 01/M02 A3007 RMK AO2 SLP209 T00061022
KGCD - John Day State, Oregon, USA
Distance from station: WNW 129mi, 208km
Updated: Tue, 06-Dec-2022 3:55pm MST
Clear
Clear
 Wind from S
Wind: S 10 mph , 17 km/h
Temperature: 37°F , 3°C
Wind Chill: 30°F , -1°C
Dew Point: 27°F , -3°C
Humidity: 65%
Barometer: 30.04 inHg , 1017.3 hPa
Clouds: Clear
Visibility: 10 miles , 16 km
2022/12/06 22:55 KGCD 062255Z AUTO 19009KT 10SM CLR 03/M03 A3004 RMK AO2 T00301034
 
KTWF - Twin Falls, Idaho, USA
Distance from station: SE 138mi, 222km
Updated: Tue, 06-Dec-2022 3:53pm MST
Overcast
Overcast
 Wind from calm
Wind: Calm
Temperature: 34°F , 1°C
Dew Point: 28°F , -2°C
Humidity: 81%
Barometer: 30.07 inHg , 1018.3 hPa
Clouds: Overcast
Visibility: 10 miles , 16 km
Cloud details: Overcast 6000 ft
2022/12/06 22:53 KTWF 062253Z 00000KT 10SM OVC060 01/M02 A3007 RMK AO2 SLP188 T00111017
KGIC - Grangeville, Idaho, USA
Distance from station: N 144mi, 232km
Updated: Tue, 06-Dec-2022 3:55pm MST
Clear
Clear
 Wind from SW
Wind: SW 14 mph , 22 km/h, Gust: 17 mph , 28 km/h
Temperature: 36°F , 2°C
Wind Chill: 27°F , -3°C
Dew Point: 25°F , -4°C
Humidity: 65%
Barometer: 29.96 inHg , 1014.6 hPa
Clouds: Clear
Visibility: 10 miles , 16 km
2022/12/06 22:55 KGIC 062255Z AUTO 23012G15KT 10SM CLR 02/M04 A2996 RMK AO1
 
KMEH - Meacham, Oregon, USA
Distance from station: NW 149mi, 240km
Updated: Mon, 05-Dec-2022 7:56pm MST
NOT Current
Mist, Mostly cloudy
Mist, Mostly cloudy
 Wind from calm
Wind: Calm
Temperature: 21°F , -6°C
Dew Point: 19°F , -7°C
Humidity: 93%
Barometer: 29.90 inHg , 1012.5 hPa
Summary: Mist
Clouds: Mostly cloudy
Visibility: 4 miles , 6 km
Cloud details: Mostly cloudy 100 ft
2022/12/06 02:56 KMEH 060256Z AUTO 00000KT 4SM BR BKN001 M06/M07 A2990 RMK AO2 SLP165 I1000 I3001 T10611072 53002
KSMN - Salmon/Lemhi, Idaho, USA
Distance from station: NE 154mi, 248km
Updated: Tue, 06-Dec-2022 3:56pm MST
Clear
Clear
 Wind from SSW
Wind: SSW 14 mph , 22 km/h
Temperature: 37°F , 3°C
Wind Chill: 28°F , -2°C
Dew Point: 19°F , -7°C
Humidity: 48%
Barometer: 29.93 inHg , 1013.5 hPa
Clouds: Clear
Visibility: 10 miles , 16 km
2022/12/06 22:56 KSMN 062256Z AUTO 20012KT 10SM CLR 03/M07 A2993 RMK AO2 SLP833 T00281072
 
KBYI - Burley, Idaho, USA
Distance from station: ESE 163mi, 262km
Updated: Tue, 06-Dec-2022 3:53pm MST
Overcast
Overcast
 Wind from NW
Wind: NW 3 mph , 6 km/h
Temperature: 36°F , 2°C
Dew Point: 28°F , -2°C
Humidity: 75%
Barometer: 30.06 inHg , 1017.9 hPa
Clouds: Overcast
Visibility: 10 miles , 16 km
Cloud details: Overcast 6000 ft
2022/12/06 22:53 KBYI 062253Z AUTO 31003KT 10SM OVC060 02/M02 A3006 RMK AO2 SLP197 T00171022
KP69 - Lowell/Elk City, Idaho, USA
Distance from station: NNE 164mi, 263km
Updated: Tue, 06-Dec-2022 3:52pm MST

 Wind from calm
Wind: Calm
Temperature: 34°F , 1°C
Dew Point: 30°F , -1°C
Humidity: 87%
Barometer: 30.03 inHg , 1016.9 hPa
2022/12/06 22:52 KP69 062252Z AUTO 00000KT 01/M01 A3003 RMK AO1 SLP192 T00111011
 
KPDT - Pendleton, Oregon, USA
Distance from station: NW 172mi, 277km
Updated: Tue, 06-Dec-2022 3:53pm MST
Clear
Clear
 Wind from WSW
Wind: WSW 15 mph , 24 km/h
Temperature: 43°F , 6°C
Wind Chill: 36°F , 2°C
Dew Point: 28°F , -2°C
Humidity: 57%
Barometer: 30.06 inHg , 1017.9 hPa
Clouds: Clear
Visibility: 10 miles , 16 km
2022/12/06 22:53 KPDT 062253Z 25013KT 10SM CLR 06/M02 A3006 RMK AO2 SLP185 T00561017
KLWS - Lewiston, Idaho, USA
Distance from station: N 175mi, 282km
Updated: Tue, 06-Dec-2022 3:56pm MST
Clear
Clear
 Wind from W
Wind: W 5 mph , 7 km/h
Temperature: 34°F , 1°C
Wind Chill: 29°F , -2°C
Dew Point: 27°F , -3°C
Humidity: 75%
Barometer: 30.04 inHg , 1017.3 hPa
Clouds: Clear
Visibility: 8 miles , 13 km
2022/12/06 22:56 KLWS 062256Z 28004KT 8SM CLR 01/M03 A3004 RMK AO2 SLP189 T00061033
 
KALW - Walla Walla, Washington, USA
Distance from station: NNW 178mi, 287km
Updated: Tue, 06-Dec-2022 3:53pm MST
Clear
Clear
 Wind from WNW
Wind: WNW 5 mph , 7 km/h
Temperature: 34°F , 1°C
Wind Chill: 29°F , -2°C
Dew Point: 27°F , -3°C
Humidity: 75%
Barometer: 30.06 inHg , 1017.9 hPa
Clouds: Clear
Visibility: 10 miles , 16 km
2022/12/06 22:53 KALW 062253Z 29004KT 10SM CLR 01/M03 A3006 RMK AO2 SLP192 T00111028 $
KHRI - Hermiston, Oregon, USA
Distance from station: NW 194mi, 311km
Updated: Tue, 06-Dec-2022 3:53pm MST
Clear
Clear
 Wind from NNE
Wind: NNE 6 mph , 9 km/h
Temperature: 28°F , -2°C
Wind Chill: 21°F , -6°C
Dew Point: 25°F , -4°C
Humidity: 86%
Barometer: 30.10 inHg , 1019.3 hPa
Clouds: Clear
Visibility: 10 miles , 16 km
2022/12/06 22:53 KHRI 062253Z AUTO 03005KT 10SM CLR M02/M04 A3010 RMK AO2 SLP198 T10171044
Honor Flight NV - Honoring all of our Veterans CoCoRaHS (Community Collaborative Rain, Hail and Snow Network) Station Number: NV-DG-2 Live Lightning Map - USA Reno Skywarn Spotter ID: DO21 AlertID Southwestern Weather Network Carson Valley Community Food Closet - providing for the needs of our community



(Click on the Flag Counter logo below for details in new browser tab)
Flag Counter